Time;durP1;ratioP1;P1;durP2;ratioP2;P2;SDS_P1;SDS_P2;PMS_P1;PMS_P2;Temp;Humidity;BMP_temperature;BMP_pressure;BME280_temperature;BME280_humidity;BME280_pressure;Samples;Min_cycle;Max_cycle;Signal;HPM_P1;HPM_P2
2022/08/03 00:01:40;;;;;;;6.55;2.35;;;21.50;99.90;;;;;;5058047;28;25079;-78
2022/08/03 00:04:07;;;;;;;11.82;3.17;;;21.50;99.90;;;;;;5047980;28;25094;-80
2022/08/03 00:06:33;;;;;;;10.85;3.08;;;21.40;99.90;;;;;;5070076;28;25082;-77
2022/08/03 00:08:58;;;;;;;7.78;2.70;;;21.40;99.90;;;;;;5062399;28;25060;-79
2022/08/03 00:11:25;;;;;;;7.40;2.45;;;21.40;99.90;;;;;;5044202;28;25087;-78
2022/08/03 00:13:50;;;;;;;8.60;2.55;;;21.40;99.90;;;;;;5058795;28;25074;-80
2022/08/03 00:16:16;;;;;;;8.43;2.30;;;21.40;99.90;;;;;;5042740;28;25065;-78
2022/08/03 00:18:42;;;;;;;5.60;2.33;;;21.50;99.90;;;;;;5036682;28;25067;-80
2022/08/03 00:21:08;;;;;;;8.07;2.42;;;21.40;99.90;;;;;;5047547;28;25151;-78
2022/08/03 00:23:34;;;;;;;11.75;2.75;;;21.50;99.90;;;;;;5040872;28;25168;-79
2022/08/03 00:25:59;;;;;;;13.65;2.70;;;21.50;99.90;;;;;;5045903;28;25091;-78
2022/08/03 00:28:25;;;;;;;12.57;2.95;;;21.40;99.90;;;;;;5046298;28;25157;-79
2022/08/03 00:30:51;;;;;;;7.60;2.90;;;21.50;99.90;;;;;;5053034;28;25152;-79
2022/08/03 00:33:16;;;;;;;10.43;3.20;;;21.50;99.90;;;;;;5035708;28;25102;-79
2022/08/03 00:35:42;;;;;;;8.65;2.88;;;21.40;99.90;;;;;;5051265;28;25081;-79
2022/08/03 00:38:08;;;;;;;12.88;3.22;;;21.40;99.90;;;;;;5038793;28;25059;-78
2022/08/03 00:40:33;;;;;;;7.93;2.53;;;21.40;99.90;;;;;;5053221;28;25166;-79
2022/08/03 00:43:02;;;;;;;8.15;3.25;;;21.30;99.90;;;;;;5040100;28;25175;-78
2022/08/03 00:45:31;;;;;;;13.98;3.08;;;21.30;99.90;;;;;;5047953;28;25071;-79
2022/08/03 00:47:58;;;;;;;8.40;2.90;;;21.30;99.90;;;;;;5035131;28;25095;-77
2022/08/03 00:50:25;;;;;;;10.70;3.45;;;21.20;99.90;;;;;;5055086;28;25074;-79
2022/08/03 00:52:52;;;;;;;14.73;3.47;;;21.20;99.90;;;;;;5038799;28;25152;-78
2022/08/03 00:55:18;;;;;;;8.27;2.97;;;21.10;99.90;;;;;;5041917;28;25066;-80
2022/08/03 00:57:44;;;;;;;17.00;3.15;;;21.20;99.90;;;;;;5040583;28;25147;-79
2022/08/03 01:00:12;;;;;;;6.28;3.13;;;21.10;99.90;;;;;;5042552;28;25121;-79
2022/08/03 01:02:38;;;;;;;12.60;3.70;;;21.20;99.90;;;;;;5044391;28;25070;-79
2022/08/03 01:05:04;;;;;;;8.07;2.80;;;21.10;99.90;;;;;;5038308;28;25136;-78
2022/08/03 01:07:55;;;;;;;12.05;2.90;;;21.10;99.90;;;;;;5045941;28;25202;-78
2022/08/03 01:10:37;;;;;;;6.50;2.58;;;21.10;99.90;;;;;;5047157;28;25134;-79
2022/08/03 01:13:09;;;;;;;11.02;3.53;;;21.10;99.90;;;;;;5041717;28;25093;-77
2022/08/03 01:16:21;;;;;;;12.82;3.22;;;21.10;99.90;;;;;;5041473;28;25073;-77
2022/08/03 01:19:06;;;;;;;15.48;4.03;;;21.10;99.90;;;;;;5026658;28;25083;-80
2022/08/03 01:21:45;;;;;;;14.20;2.97;;;21.10;99.90;;;;;;5036005;28;25070;-82
2022/08/03 01:24:41;;;;;;;8.48;2.72;;;21.00;99.90;;;;;;5042138;28;25073;-78
2022/08/03 01:27:53;;;;;;;11.98;3.05;;;21.10;99.90;;;;;;5047904;28;25064;-78
2022/08/03 01:30:19;;;;;;;8.25;2.75;;;21.00;99.90;;;;;;5013258;28;25090;-78
2022/08/03 01:32:57;;;;;;;7.43;2.92;;;21.00;99.90;;;;;;5044877;28;25110;-80
2022/08/03 01:35:34;;;;;;;13.68;3.13;;;21.10;99.90;;;;;;5059213;28;25069;-78
2022/08/03 01:38:08;;;;;;;13.57;3.05;;;21.00;99.90;;;;;;5046932;28;25069;-79
2022/08/03 01:40:36;;;;;;;5.78;2.95;;;21.00;99.90;;;;;;5045234;28;25059;-79
2022/08/03 01:43:03;;;;;;;15.55;3.78;;;21.00;99.90;;;;;;5058368;28;25083;-79
2022/08/03 01:45:30;;;;;;;14.70;3.00;;;21.00;99.90;;;;;;5047290;28;25049;-81
2022/08/03 01:47:56;;;;;;;11.13;4.03;;;20.90;99.90;;;;;;5045989;28;25061;-78
2022/08/03 01:50:26;;;;;;;9.05;3.45;;;20.90;99.90;;;;;;5055895;28;25084;-80
2022/08/03 01:52:53;;;;;;;12.77;2.75;;;20.90;99.90;;;;;;5052827;28;25141;-78
2022/08/03 01:55:21;;;;;;;15.02;3.88;;;20.80;99.90;;;;;;5048759;28;24910;-80
2022/08/03 01:57:48;;;;;;;9.98;3.08;;;20.80;99.90;;;;;;5040408;28;25141;-77
2022/08/03 02:00:15;;;;;;;10.70;3.80;;;20.90;99.90;;;;;;5046537;28;25100;-78
2022/08/03 02:02:42;;;;;;;10.05;2.67;;;20.90;99.90;;;;;;5043905;28;25084;-79
2022/08/03 02:05:10;;;;;;;10.68;4.22;;;20.80;99.90;;;;;;5048533;28;25067;-78
2022/08/03 02:07:38;;;;;;;12.02;3.50;;;20.80;99.90;;;;;;5035646;28;25166;-78
2022/08/03 02:10:06;;;;;;;13.55;3.90;;;20.90;99.90;;;;;;5050775;28;25051;-79
2022/08/03 02:12:33;;;;;;;16.33;3.25;;;20.80;99.90;;;;;;5030734;28;25073;-79
2022/08/03 02:15:00;;;;;;;12.63;3.08;;;20.70;99.90;;;;;;5039368;28;25107;-79
2022/08/03 02:17:27;;;;;;;11.90;3.40;;;20.80;99.90;;;;;;5045294;28;25061;-78
2022/08/03 02:19:55;;;;;;;15.35;4.13;;;20.70;99.90;;;;;;5035252;28;25082;-80
2022/08/03 02:22:23;;;;;;;8.93;3.47;;;20.70;99.90;;;;;;5045015;28;25087;-80
2022/08/03 02:24:49;;;;;;;12.35;3.55;;;20.70;99.90;;;;;;5034424;28;25066;-79
2022/08/03 02:27:26;;;;;;;15.30;3.53;;;20.80;99.90;;;;;;5042571;28;25069;-79
2022/08/03 02:30:04;;;;;;;13.40;3.70;;;20.80;99.90;;;;;;5057256;28;25081;-79
2022/08/03 02:32:34;;;;;;;11.25;3.45;;;20.80;99.90;;;;;;5047754;28;25082;-82
2022/08/03 02:35:02;;;;;;;16.10;3.40;;;20.70;99.90;;;;;;5040378;28;25107;-78
2022/08/03 02:37:33;;;;;;;19.73;4.25;;;20.70;99.90;;;;;;5036357;28;25133;-79
2022/08/03 02:40:02;;;;;;;12.65;3.03;;;20.70;99.90;;;;;;5039003;28;25124;-78
2022/08/03 02:42:30;;;;;;;13.77;4.55;;;20.60;99.90;;;;;;5048997;28;25061;-80
2022/08/03 02:44:59;;;;;;;13.18;4.82;;;20.60;99.90;;;;;;5041252;28;25072;-80
2022/08/03 02:47:28;;;;;;;18.55;3.78;;;20.60;99.90;;;;;;5054325;28;25058;-78
2022/08/03 02:49:57;;;;;;;17.10;3.92;;;20.60;99.90;;;;;;5050694;28;25064;-78
2022/08/03 02:52:26;;;;;;;13.43;3.92;;;20.50;99.90;;;;;;5047199;28;25079;-78
2022/08/03 02:54:57;;;;;;;15.23;3.70;;;20.50;99.90;;;;;;5053264;28;25098;-79
2022/08/03 02:57:25;;;;;;;8.52;3.25;;;20.50;99.90;;;;;;5043845;28;25170;-78
2022/08/03 02:59:52;;;;;;;13.65;3.80;;;20.50;99.90;;;;;;5041823;28;25078;-80
2022/08/03 03:02:19;;;;;;;16.08;3.63;;;20.40;99.90;;;;;;5055475;28;25091;-78
2022/08/03 03:04:46;;;;;;;13.02;3.45;;;20.40;99.90;;;;;;5058133;28;25138;-79
2022/08/03 03:07:13;;;;;;;18.55;3.95;;;20.40;99.90;;;;;;5061935;28;25081;-78
2022/08/03 03:09:39;;;;;;;11.77;3.80;;;20.50;99.90;;;;;;5046779;28;25086;-79
2022/08/03 03:12:07;;;;;;;15.38;3.60;;;20.40;99.90;;;;;;5056533;28;25141;-77
2022/08/03 03:14:35;;;;;;;15.00;3.17;;;20.40;99.90;;;;;;5056292;28;25052;-78
2022/08/03 03:17:01;;;;;;;13.65;3.88;;;20.40;99.90;;;;;;5052731;28;25062;-78
2022/08/03 03:19:27;;;;;;;19.55;4.68;;;20.40;99.90;;;;;;5053836;28;24984;-77
2022/08/03 03:21:54;;;;;;;24.13;3.90;;;20.50;99.90;;;;;;5060662;28;25153;-77
2022/08/03 03:24:21;;;;;;;14.93;4.38;;;20.40;99.90;;;;;;5058640;28;25066;-78
2022/08/03 03:26:48;;;;;;;14.30;3.85;;;20.40;99.90;;;;;;5069194;28;25084;-78
2022/08/03 03:29:15;;;;;;;15.10;3.63;;;20.40;99.90;;;;;;5045955;28;25054;-79
2022/08/03 03:31:40;;;;;;;15.30;3.95;;;20.40;99.90;;;;;;5049059;28;25158;-78
2022/08/03 03:34:06;;;;;;;12.45;3.10;;;20.40;99.90;;;;;;5048905;28;25065;-79
2022/08/03 03:36:31;;;;;;;13.52;3.83;;;20.30;99.90;;;;;;5040529;28;25126;-77
2022/08/03 03:38:57;;;;;;;20.83;3.72;;;20.40;99.90;;;;;;5051781;28;25104;-79
2022/08/03 03:41:23;;;;;;;13.25;4.30;;;20.40;99.90;;;;;;5039746;28;25109;-78
2022/08/03 03:43:49;;;;;;;17.73;4.35;;;20.30;99.90;;;;;;5041861;28;25064;-79
2022/08/03 03:46:15;;;;;;;17.65;3.53;;;20.20;99.90;;;;;;5047424;28;25096;-79
2022/08/03 03:48:41;;;;;;;16.38;3.97;;;20.20;99.90;;;;;;5050531;28;25089;-78
2022/08/03 03:51:07;;;;;;;13.55;3.60;;;20.20;99.90;;;;;;5050236;28;25073;-78
2022/08/03 03:53:32;;;;;;;18.45;3.55;;;20.30;99.90;;;;;;5059830;28;25052;-80
2022/08/03 03:55:58;;;;;;;10.02;3.13;;;20.20;99.90;;;;;;5072893;28;25069;-81
2022/08/03 03:58:24;;;;;;;12.68;3.60;;;20.20;99.90;;;;;;5059612;28;25109;-80
2022/08/03 04:00:49;;;;;;;14.00;4.22;;;20.20;99.90;;;;;;5067378;28;25077;-81
2022/08/03 04:03:15;;;;;;;11.73;4.05;;;20.20;99.90;;;;;;5067996;28;25070;-79
2022/08/03 04:11:33;;;;;;;14.90;4.00;;;20.10;99.90;;;;;;5056874;28;25108;-80
2022/08/03 04:14:24;;;;;;;19.38;4.28;;;20.10;99.90;;;;;;5074287;28;25053;-81
2022/08/03 04:17:00;;;;;;;18.35;4.38;;;20.20;99.90;;;;;;5084042;28;25108;-78
2022/08/03 04:19:29;;;;;;;14.07;3.83;;;20.30;99.90;;;;;;5062308;28;25107;-78
2022/08/03 04:21:59;;;;;;;13.00;3.60;;;20.10;99.90;;;;;;5052982;28;25141;-78
2022/08/03 04:24:30;;;;;;;13.30;3.88;;;20.10;99.90;;;;;;5052514;28;25134;-77
2022/08/03 04:26:57;;;;;;;11.65;3.65;;;20.10;99.90;;;;;;5040696;28;25068;-79
2022/08/03 04:29:25;;;;;;;20.60;3.70;;;20.10;99.90;;;;;;5050646;28;25075;-79
2022/08/03 04:31:53;;;;;;;11.98;4.05;;;20.10;99.90;;;;;;5039285;28;25141;-78
2022/08/03 04:34:19;;;;;;;13.38;4.80;;;20.10;99.90;;;;;;5034601;28;25086;-79
2022/08/03 04:36:49;;;;;;;22.67;4.05;;;20.10;99.90;;;;;;5045377;28;25073;-79
2022/08/03 04:39:23;;;;;;;17.00;3.83;;;20.10;99.90;;;;;;5052149;28;25129;-79
2022/08/03 04:41:51;;;;;;;19.45;3.95;;;20.10;99.90;;;;;;5054576;28;25050;-78
2022/08/03 04:44:19;;;;;;;18.90;4.22;;;20.10;99.90;;;;;;5055708;28;25075;-77
2022/08/03 04:46:46;;;;;;;13.95;4.20;;;20.10;99.90;;;;;;5045823;28;25044;-80
2022/08/03 04:49:12;;;;;;;19.35;4.03;;;20.10;99.90;;;;;;5063100;28;25160;-78
2022/08/03 04:51:39;;;;;;;18.10;4.07;;;20.20;99.90;;;;;;5039882;28;25104;-80
2022/08/03 04:54:06;;;;;;;15.35;5.00;;;20.20;99.90;;;;;;5059019;28;25091;-78
2022/08/03 04:56:33;;;;;;;16.42;4.78;;;20.20;99.90;;;;;;5048312;28;25061;-80
2022/08/03 04:58:58;;;;;;;16.25;4.07;;;20.20;99.90;;;;;;5046830;28;25053;-78
2022/08/03 05:01:24;;;;;;;19.70;4.15;;;20.30;99.90;;;;;;5049666;28;25097;-77
2022/08/03 05:03:50;;;;;;;22.20;4.15;;;20.20;99.90;;;;;;5051155;28;25085;-80
2022/08/03 05:06:15;;;;;;;19.55;4.80;;;20.30;99.90;;;;;;5053328;28;25053;-77
2022/08/03 05:08:41;;;;;;;12.73;4.60;;;20.30;99.90;;;;;;5047275;28;25067;-79
2022/08/03 05:11:07;;;;;;;17.65;4.53;;;20.30;99.90;;;;;;5039107;28;25078;-78
2022/08/03 05:13:33;;;;;;;18.20;4.57;;;20.30;99.90;;;;;;5040209;28;25061;-79
2022/08/03 05:15:58;;;;;;;17.85;3.75;;;20.40;99.90;;;;;;5037178;28;25066;-78
2022/08/03 05:18:24;;;;;;;20.75;4.10;;;20.40;99.90;;;;;;5032299;28;25066;-76
2022/08/03 05:20:49;;;;;;;19.17;4.30;;;20.40;99.90;;;;;;5048742;28;25069;-79
2022/08/03 05:23:15;;;;;;;15.13;4.22;;;20.40;99.90;;;;;;5045406;28;25072;-76
2022/08/03 05:25:40;;;;;;;11.27;3.55;;;20.40;99.90;;;;;;5036874;28;25162;-77
2022/08/03 05:28:06;;;;;;;17.00;4.18;;;20.50;99.90;;;;;;5037221;28;25057;-77
2022/08/03 05:30:32;;;;;;;18.05;3.83;;;20.50;99.90;;;;;;5048509;28;25164;-76
2022/08/03 05:32:58;;;;;;;15.80;3.97;;;20.50;99.90;;;;;;5047804;28;25060;-78
2022/08/03 05:35:25;;;;;;;21.02;4.78;;;20.50;99.90;;;;;;5055114;28;25096;-79
2022/08/03 05:37:50;;;;;;;18.20;4.22;;;20.50;99.90;;;;;;5064847;28;25074;-75
2022/08/03 05:40:16;;;;;;;19.55;4.70;;;20.50;99.90;;;;;;5039102;28;25081;-78
2022/08/03 05:42:42;;;;;;;12.45;3.38;;;20.60;99.90;;;;;;5049324;28;25060;-78
2022/08/03 05:45:13;;;;;;;16.35;5.03;;;20.60;99.90;;;;;;5059051;28;25083;-75
2022/08/03 05:47:43;;;;;;;15.13;4.65;;;20.60;99.90;;;;;;5053988;28;25067;-77
2022/08/03 05:50:11;;;;;;;12.65;3.88;;;20.70;99.90;;;;;;5055545;28;24948;-77
2022/08/03 05:52:38;;;;;;;18.60;4.35;;;20.60;99.90;;;;;;5043262;28;25209;-78
2022/08/03 05:55:08;;;;;;;21.70;4.30;;;20.60;99.90;;;;;;5044697;28;25130;-77
2022/08/03 05:57:34;;;;;;;16.33;4.57;;;20.70;99.90;;;;;;5033133;28;25076;-76
2022/08/03 06:00:06;;;;;;;24.35;4.15;;;20.70;99.90;;;;;;5039423;28;25075;-77
2022/08/03 06:02:32;;;;;;;19.55;4.47;;;20.80;99.90;;;;;;5034904;28;25097;-76
2022/08/03 06:04:57;;;;;;;22.00;4.43;;;20.80;99.90;;;;;;5042215;28;25150;-77
2022/08/03 06:07:23;;;;;;;16.77;5.10;;;20.80;99.90;;;;;;5056672;28;25092;-77
2022/08/03 06:09:48;;;;;;;21.77;4.38;;;20.80;99.90;;;;;;5050385;28;25140;-78
2022/08/03 06:12:14;;;;;;;19.70;5.00;;;20.80;99.90;;;;;;5042493;28;25094;-77
2022/08/03 06:14:40;;;;;;;17.60;4.93;;;20.90;99.90;;;;;;5036109;28;25073;-78
2022/08/03 06:17:07;;;;;;;14.43;4.10;;;21.00;99.90;;;;;;5042308;28;25068;-78
2022/08/03 06:19:32;;;;;;;18.45;4.63;;;21.20;99.90;;;;;;5045194;28;25163;-77
2022/08/03 06:21:58;;;;;;;17.30;4.45;;;21.20;99.90;;;;;;5040671;28;25052;-77
2022/08/03 06:24:24;;;;;;;17.33;4.35;;;21.30;99.90;;;;;;5040577;28;25049;-76
2022/08/03 06:26:49;;;;;;;13.50;4.22;;;21.50;99.90;;;;;;5035475;28;25114;-78
2022/08/03 06:29:15;;;;;;;21.55;4.82;;;21.50;99.90;;;;;;5034316;28;25058;-79
2022/08/03 06:31:40;;;;;;;19.80;3.75;;;21.60;99.90;;;;;;5040657;28;25132;-78
2022/08/03 06:34:06;;;;;;;27.85;6.07;;;21.90;99.90;;;;;;5041560;28;25076;-77
2022/08/03 06:36:32;;;;;;;14.50;4.20;;;22.10;99.90;;;;;;5041932;28;25078;-76
2022/08/03 06:38:58;;;;;;;20.08;5.10;;;22.20;99.90;;;;;;5049500;28;25068;-78
2022/08/03 06:41:25;;;;;;;18.35;4.85;;;22.10;99.90;;;;;;5040153;28;25059;-79
2022/08/03 06:43:50;;;;;;;15.98;4.70;;;22.10;99.90;;;;;;5040963;28;25069;-77
2022/08/03 06:46:16;;;;;;;27.88;5.18;;;22.10;99.90;;;;;;5042169;28;25097;-78
2022/08/03 06:48:42;;;;;;;16.75;4.60;;;22.20;99.90;;;;;;5042495;28;25059;-77
2022/08/03 06:51:08;;;;;;;17.63;5.55;;;22.10;99.90;;;;;;5036714;28;25060;-77
2022/08/03 06:53:34;;;;;;;16.33;6.10;;;22.00;99.90;;;;;;5033717;28;25052;-78
2022/08/03 06:55:59;;;;;;;16.90;5.28;;;21.90;99.90;;;;;;5044993;28;25106;-77
2022/08/03 06:58:25;;;;;;;18.27;6.53;;;21.80;99.90;;;;;;5049940;28;25066;-76
2022/08/03 07:00:51;;;;;;;21.05;5.03;;;21.80;99.90;;;;;;5042161;28;25119;-76
2022/08/03 07:03:17;;;;;;;18.73;5.78;;;21.90;99.90;;;;;;5054767;28;25090;-76
2022/08/03 07:05:45;;;;;;;15.55;5.80;;;21.80;99.90;;;;;;5048520;28;25159;-76
2022/08/03 07:08:10;;;;;;;23.67;6.10;;;21.80;99.90;;;;;;5050740;28;25062;-77
2022/08/03 07:10:36;;;;;;;20.02;5.40;;;21.90;99.90;;;;;;5049096;28;25051;-76
2022/08/03 07:13:02;;;;;;;16.63;5.35;;;22.10;99.90;;;;;;5044457;28;25090;-77
2022/08/03 07:15:28;;;;;;;16.35;4.80;;;22.20;99.90;;;;;;5051755;28;25078;-78
2022/08/03 07:17:53;;;;;;;23.20;5.68;;;22.40;99.90;;;;;;5063181;28;25072;-75
2022/08/03 07:20:19;;;;;;;20.55;5.13;;;22.30;99.90;;;;;;5060299;28;25064;-78
2022/08/03 07:22:45;;;;;;;24.67;6.20;;;22.40;99.90;;;;;;5054480;28;25141;-74
2022/08/03 07:25:10;;;;;;;18.02;5.07;;;22.50;99.90;;;;;;5059387;28;25050;-74
2022/08/03 07:27:37;;;;;;;21.00;5.40;;;22.70;99.90;;;;;;5050728;28;25080;-75
2022/08/03 07:30:05;;;;;;;17.20;5.22;;;22.90;99.90;;;;;;5047836;28;25068;-73
2022/08/03 07:32:31;;;;;;;19.73;5.53;;;23.20;99.90;;;;;;5035973;28;25065;-78
2022/08/03 07:34:57;;;;;;;17.45;4.85;;;23.40;99.90;;;;;;5046144;28;25056;-75
2022/08/03 07:37:22;;;;;;;19.27;4.72;;;23.60;99.90;;;;;;5064753;28;25140;-75
2022/08/03 07:39:48;;;;;;;16.13;5.10;;;23.60;99.90;;;;;;5052781;28;25058;-74
2022/08/03 07:42:13;;;;;;;25.35;5.35;;;23.70;99.90;;;;;;5045527;28;25102;-79
2022/08/03 07:44:39;;;;;;;17.42;4.25;;;23.90;99.90;;;;;;5047006;28;25097;-73
2022/08/03 07:47:05;;;;;;;17.13;4.40;;;24.10;99.90;;;;;;5055915;28;25053;-77
2022/08/03 07:49:31;;;;;;;11.20;3.35;;;24.20;99.90;;;;;;5047916;28;25154;-76
2022/08/03 07:54:40;;;;;;;19.02;3.95;;;24.30;99.90;;;;;;5041965;28;25067;-73
2022/08/03 07:57:06;;;;;;;14.77;4.18;;;24.10;99.90;;;;;;5039834;28;25111;-75
2022/08/03 07:59:34;;;;;;;13.05;3.80;;;24.20;99.90;;;;;;5040707;28;25128;-75
2022/08/03 08:01:59;;;;;;;12.45;3.80;;;24.40;99.90;;;;;;5039783;28;25060;-75
2022/08/03 08:04:25;;;;;;;17.48;4.28;;;24.50;99.90;;;;;;5034623;28;25131;-75
2022/08/03 08:06:50;;;;;;;23.75;3.50;;;24.40;99.90;;;;;;5041526;28;25058;-75
2022/08/03 08:09:16;;;;;;;16.30;3.70;;;24.30;99.90;;;;;;5037751;28;25148;-75
2022/08/03 08:11:41;;;;;;;18.65;3.60;;;24.40;99.90;;;;;;5043932;28;25097;-76
2022/08/03 08:14:08;;;;;;;15.30;3.78;;;24.60;99.90;;;;;;5043837;28;25096;-76
2022/08/03 08:16:33;;;;;;;20.45;3.90;;;24.60;99.90;;;;;;5040350;28;25103;-75
2022/08/03 08:18:59;;;;;;;12.15;3.78;;;24.60;99.90;;;;;;5041778;28;25163;-74
2022/08/03 08:21:24;;;;;;;17.52;3.50;;;24.80;99.90;;;;;;5042095;28;25067;-74
2022/08/03 08:23:50;;;;;;;13.82;3.80;;;25.10;99.90;;;;;;5036550;28;25065;-73
2022/08/03 08:26:15;;;;;;;19.05;3.88;;;25.40;99.90;;;;;;5032811;28;25114;-75
2022/08/03 08:28:41;;;;;;;11.52;4.10;;;25.40;99.90;;;;;;5034446;28;25054;-77
2022/08/03 08:31:06;;;;;;;16.02;3.60;;;25.20;99.90;;;;;;5039049;28;25126;-76
2022/08/03 08:33:33;;;;;;;13.07;3.67;;;25.00;99.90;;;;;;5037243;28;25072;-76
2022/08/03 08:35:59;;;;;;;20.40;4.43;;;25.20;99.90;;;;;;5051346;28;25112;-74
2022/08/03 08:38:25;;;;;;;17.80;3.83;;;25.30;99.90;;;;;;5041846;28;25171;-75
2022/08/03 08:40:50;;;;;;;15.15;3.72;;;25.20;99.90;;;;;;5053055;28;25047;-74
2022/08/03 08:43:16;;;;;;;11.40;3.72;;;25.30;99.90;;;;;;5043610;28;25060;-76
2022/08/03 08:45:42;;;;;;;15.52;3.97;;;25.50;99.90;;;;;;5063307;28;25067;-77
2022/08/03 08:48:11;;;;;;;14.48;4.18;;;25.70;99.90;;;;;;5042571;28;25045;-75
2022/08/03 08:50:38;;;;;;;14.05;4.53;;;25.70;99.90;;;;;;5060797;28;25074;-75
2022/08/03 08:53:06;;;;;;;21.38;3.90;;;25.70;99.90;;;;;;5040928;28;25075;-74
2022/08/03 08:55:34;;;;;;;19.00;3.45;;;25.70;99.90;;;;;;5042587;28;25071;-74
2022/08/03 08:58:04;;;;;;;13.98;3.55;;;25.70;99.90;;;;;;5050125;28;25106;-73
2022/08/03 09:00:30;;;;;;;22.63;4.03;;;26.00;99.90;;;;;;5050731;28;25060;-72
2022/08/03 09:02:56;;;;;;;14.85;3.90;;;26.60;99.90;;;;;;5045053;28;25067;-72
2022/08/03 09:05:22;;;;;;;17.80;3.78;;;26.70;99.90;;;;;;5045641;28;25073;-73
2022/08/03 09:07:48;;;;;;;13.90;3.80;;;26.70;99.90;;;;;;5052425;28;25105;-73
2022/08/03 09:10:18;;;;;;;13.63;3.47;;;26.70;99.90;;;;;;5038599;28;25068;-75
2022/08/03 09:12:51;;;;;;;12.85;3.75;;;26.70;99.90;;;;;;5042982;28;25111;-73
2022/08/03 09:15:22;;;;;;;19.85;3.83;;;26.70;99.90;;;;;;5052528;28;25077;-72
2022/08/03 09:17:49;;;;;;;18.75;3.92;;;26.70;99.90;;;;;;5047987;28;25152;-73
2022/08/03 09:20:15;;;;;;;18.55;3.80;;;26.90;99.90;;;;;;5052134;28;25084;-71
2022/08/03 09:23:03;;;;;;;16.13;3.80;;;27.00;99.90;;;;;;5053539;28;25054;-73
2022/08/03 09:25:30;;;;;;;17.23;3.67;;;27.10;99.90;;;;;;5055713;28;25079;-74
2022/08/03 09:28:06;;;;;;;17.20;3.92;;;27.10;99.90;;;;;;5035932;28;25088;-73
2022/08/03 09:30:31;;;;;;;20.45;4.15;;;26.90;99.90;;;;;;5050097;28;25118;-72
2022/08/03 09:33:05;;;;;;;11.98;3.60;;;26.90;99.90;;;;;;5032241;28;25506;-73
2022/08/03 09:35:31;;;;;;;18.60;4.45;;;27.00;99.90;;;;;;5038488;28;25130;-74
2022/08/03 09:38:13;;;;;;;15.82;3.67;;;27.20;99.90;;;;;;5043657;28;25061;-73
2022/08/03 09:40:39;;;;;;;19.25;4.35;;;27.10;99.90;;;;;;5047453;28;25066;-74
2022/08/03 09:43:07;;;;;;;14.77;3.55;;;27.10;99.90;;;;;;5070795;28;25046;-74
2022/08/03 09:45:33;;;;;;;18.88;4.10;;;27.30;99.90;;;;;;5060884;28;25058;-73
2022/08/03 09:48:19;;;;;;;18.98;3.90;;;27.10;99.90;;;;;;5060239;28;25089;-70
2022/08/03 09:50:52;;;;;;;20.05;4.57;;;27.60;99.90;;;;;;5063913;28;25114;-72
2022/08/03 09:53:18;;;;;;;14.07;4.38;;;27.90;99.90;;;;;;5046142;28;25165;-72
2022/08/03 09:55:55;;;;;;;20.50;4.15;;;27.90;99.90;;;;;;5067122;28;25071;-72
2022/08/03 09:58:21;;;;;;;11.65;3.53;;;28.00;99.90;;;;;;5072868;28;25065;-71
2022/08/03 10:01:04;;;;;;;17.42;3.38;;;28.10;99.90;;;;;;5070721;28;25086;-72
2022/08/03 10:03:34;;;;;;;12.35;3.67;;;28.10;99.90;;;;;;5055096;28;25063;-72
2022/08/03 10:06:21;;;;;;;14.35;3.53;;;27.90;99.90;;;;;;5048809;28;25071;-73
2022/08/03 10:09:03;;;;;;;15.20;3.63;;;27.90;99.90;;;;;;5049193;28;25174;-72
2022/08/03 10:11:33;;;;;;;12.07;3.65;;;28.20;99.90;;;;;;5051159;28;25067;-74
2022/08/03 10:14:02;;;;;;;17.85;4.85;;;28.10;99.90;;;;;;5049850;28;25080;-72
2022/08/03 10:16:34;;;;;;;9.52;3.40;;;28.20;99.90;;;;;;5061371;28;25085;-72
2022/08/03 10:19:00;;;;;;;19.75;3.95;;;28.00;99.90;;;;;;5045729;28;25062;-72
2022/08/03 10:21:33;;;;;;;15.80;3.92;;;27.70;99.90;;;;;;5049604;28;25177;-72
2022/08/03 10:24:02;;;;;;;15.35;3.92;;;28.20;99.90;;;;;;5047816;28;25059;-72
2022/08/03 10:26:31;;;;;;;17.63;3.50;;;28.60;99.90;;;;;;5044559;28;25150;-73
2022/08/03 10:29:01;;;;;;;15.43;3.60;;;28.80;99.90;;;;;;5042958;28;25083;-72
2022/08/03 10:31:33;;;;;;;14.38;3.63;;;28.90;99.90;;;;;;5070095;28;25057;-72
2022/08/03 10:34:00;;;;;;;10.95;3.25;;;28.60;99.90;;;;;;5051871;28;25048;-72
2022/08/03 10:36:30;;;;;;;17.63;4.90;;;28.70;99.90;;;;;;5048745;28;24698;-72
2022/08/03 10:38:56;;;;;;;11.25;3.50;;;28.60;99.90;;;;;;5052459;28;25083;-73
2022/08/03 10:41:29;;;;;;;14.88;2.95;;;28.70;99.90;;;;;;5054601;28;25104;-71
2022/08/03 10:44:16;;;;;;;14.35;4.40;;;29.00;99.90;;;;;;5046892;28;25056;-71
2022/08/03 10:46:43;;;;;;;15.50;3.03;;;29.30;99.90;;;;;;5045428;28;25136;-73
2022/08/03 10:49:13;;;;;;;17.40;3.65;;;29.20;99.90;;;;;;5048453;28;25075;-74
2022/08/03 10:51:40;;;;;;;18.65;4.00;;;29.10;99.90;;;;;;5050243;28;25102;-72
2022/08/03 10:54:05;;;;;;;17.08;3.05;;;29.40;99.90;;;;;;5050988;28;25120;-73
2022/08/03 10:59:38;;;;;;;18.70;3.85;;;29.30;99.90;;;;;;5066501;28;25062;-71
2022/08/03 11:02:07;;;;;;;14.18;3.58;;;29.50;99.90;;;;;;5058928;28;25053;-71
2022/08/03 11:04:32;;;;;;;18.17;3.42;;;29.40;99.90;;;;;;5062222;28;25071;-72
2022/08/03 11:07:17;;;;;;;14.98;3.35;;;29.20;99.90;;;;;;5058089;28;25068;-72
2022/08/03 11:09:51;;;;;;;16.23;3.13;;;29.30;99.90;;;;;;5054342;28;25149;-72
2022/08/03 11:12:28;;;;;;;13.35;3.85;;;29.70;99.90;;;;;;5038531;28;25074;-73
2022/08/03 11:14:55;;;;;;;18.00;3.53;;;30.00;99.90;;;;;;5037949;28;25064;-71
2022/08/03 11:17:21;;;;;;;10.55;3.20;;;30.20;99.90;;;;;;5044114;28;25155;-72
2022/08/03 11:19:52;;;;;;;18.48;4.05;;;30.20;99.90;;;;;;5052921;28;25071;-72
2022/08/03 11:22:19;;;;;;;15.43;4.15;;;30.40;99.90;;;;;;5042545;28;25082;-71
2022/08/03 11:24:46;;;;;;;20.67;3.50;;;30.30;99.90;;;;;;5045076;28;25085;-71
2022/08/03 11:27:18;;;;;;;14.57;3.42;;;30.50;99.90;;;;;;5047532;28;25137;-70
2022/08/03 11:30:01;;;;;;;8.48;3.28;;;30.70;99.90;;;;;;5039399;28;25058;-71
2022/08/03 11:32:36;;;;;;;16.00;3.80;;;30.70;99.90;;;;;;5044876;28;25080;-72
2022/08/03 11:35:23;;;;;;;11.82;4.10;;;30.40;99.40;;;;;;5048471;28;25109;-71
2022/08/03 11:38:01;;;;;;;14.70;4.05;;;30.00;99.90;;;;;;5039323;28;25070;-71
2022/08/03 11:40:47;;;;;;;12.80;3.78;;;30.30;99.90;;;;;;5042365;28;25146;-72
2022/08/03 11:43:25;;;;;;;14.02;3.75;;;30.40;99.90;;;;;;5041552;28;25170;-72
2022/08/03 11:46:15;;;;;;;16.48;3.65;;;30.40;99.90;;;;;;5038890;28;25063;-72
2022/08/03 11:48:43;;;;;;;15.07;3.30;;;30.70;98.80;;;;;;5044724;28;25057;-72
2022/08/03 11:51:30;;;;;;;13.70;3.35;;;30.90;95.80;;;;;;5053210;28;25055;-73
2022/08/03 11:53:57;;;;;;;11.75;2.90;;;30.90;96.70;;;;;;5047687;28;25062;-71
2022/08/03 11:56:24;;;;;;;11.50;3.00;;;30.50;97.80;;;;;;5043348;28;25058;-72
2022/08/03 11:58:52;;;;;;;12.73;3.30;;;30.40;99.20;;;;;;5058001;28;25096;-72
2022/08/03 12:01:19;;;;;;;11.07;3.00;;;30.50;98.40;;;;;;5057138;28;25056;-72
2022/08/03 12:03:45;;;;;;;11.75;2.70;;;30.40;99.20;;;;;;5049557;28;25086;-78
2022/08/03 12:06:12;;;;;;;12.60;3.90;;;30.60;98.80;;;;;;5050758;28;25070;-70
2022/08/03 12:08:38;;;;;;;12.57;3.33;;;30.40;99.70;;;;;;5042715;28;25083;-72
2022/08/03 12:11:06;;;;;;;14.27;3.45;;;30.90;99.30;;;;;;5044299;28;25067;-73
2022/08/03 12:13:48;;;;;;;13.20;2.90;;;30.60;96.20;;;;;;5036460;28;25088;-72
2022/08/03 12:16:18;;;;;;;9.95;2.60;;;30.60;97.00;;;;;;5056909;28;25061;-73
2022/08/03 12:18:44;;;;;;;16.58;4.13;;;30.60;97.60;;;;;;5043942;28;25074;-73
2022/08/03 12:21:11;;;;;;;9.77;3.38;;;30.40;98.10;;;;;;5047701;28;25159;-72
2022/08/03 12:23:37;;;;;;;11.57;2.92;;;30.40;98.40;;;;;;5046971;28;25047;-76
2022/08/03 12:26:06;;;;;;;7.85;3.20;;;30.60;98.00;;;;;;5045848;28;25114;-72
2022/08/03 12:28:32;;;;;;;11.82;2.85;;;30.70;97.50;;;;;;5051671;28;25061;-73
2022/08/03 12:31:05;;;;;;;11.52;3.42;;;30.70;96.50;;;;;;5056267;28;25064;-71
2022/08/03 12:33:31;;;;;;;9.10;2.88;;;31.00;94.90;;;;;;5047025;28;25057;-72
2022/08/03 12:36:07;;;;;;;6.22;3.15;;;30.60;96.30;;;;;;5058603;28;25094;-72
2022/08/03 12:38:34;;;;;;;7.63;2.70;;;30.50;94.80;;;;;;5047856;28;25107;-71
2022/08/03 12:41:06;;;;;;;11.68;2.90;;;30.50;95.50;;;;;;5056264;28;25122;-70
2022/08/03 12:43:31;;;;;;;11.90;3.33;;;30.50;95.80;;;;;;5046189;28;25103;-74
2022/08/03 12:46:11;;;;;;;14.82;2.88;;;31.10;95.40;;;;;;5049052;28;25152;-71
2022/08/03 12:48:57;;;;;;;14.98;3.25;;;31.50;92.70;;;;;;5048045;28;25066;-74
2022/08/03 12:51:23;;;;;;;12.98;3.08;;;31.10;90.70;;;;;;5057059;28;25079;-73
2022/08/03 12:53:53;;;;;;;7.30;2.63;;;30.80;94.70;;;;;;5058760;28;25067;-72
2022/08/03 12:56:19;;;;;;;9.48;2.92;;;30.60;93.50;;;;;;5058769;28;25125;-72
2022/08/03 12:58:46;;;;;;;5.57;2.33;;;30.50;95.70;;;;;;5042059;28;25143;-72